Time;durP1;ratioP1;P1;durP2;ratioP2;P2;SDS_P1;SDS_P2;PMS_P1;PMS_P2;Temp;Humidity;BMP_temperature;BMP_pressure;BME280_temperature;BME280_humidity;BME280_pressure;Samples;Min_cycle;Max_cycle;Signal;HPM_P1;HPM_P2
2023/09/17 00:02:14;;;;;;;;;;;;;;;18.26;100.00;101346.16;5090778;28;20354;-36
2023/09/17 00:04:39;;;;;;;8.00;6.87;;;;;;;18.09;100.00;101329.13;5090472;28;19915;-36
2023/09/17 00:07:04;;;;;;;;;;;;;;;18.21;100.00;101335.22;5090965;28;20745;-36
2023/09/17 00:09:30;;;;;;;6.68;6.07;;;;;;;18.13;100.00;101335.72;5082114;28;20427;-36
2023/09/17 00:11:55;;;;;;;;;;;;;;;18.19;100.00;101345.59;5076866;28;20429;-36
2023/09/17 00:14:21;;;;;;;6.05;5.45;;;;;;;18.05;100.00;101340.88;5076337;28;19915;-36
2023/09/17 00:16:46;;;;;;;;;;;;;;;18.15;100.00;101341.72;5076752;28;20029;-36
2023/09/17 00:19:12;;;;;;;7.28;6.05;;;;;;;17.98;100.00;101324.72;5076203;28;19916;-36
2023/09/17 00:21:38;;;;;;;9.05;6.63;;;;;;;17.87;100.00;101325.78;5076219;28;20025;-37
2023/09/17 00:24:03;;;;;;;;;;;;;;;17.92;100.00;101320.34;5076574;28;20027;-36
2023/09/17 00:26:28;;;;;;;8.57;6.05;;;;;;;17.66;100.00;101298.31;5076960;28;19960;-36
2023/09/17 00:28:54;;;;;;;;;;;;;;;17.85;100.00;101317.00;5077069;28;20570;-36
2023/09/17 00:31:19;;;;;;;5.95;5.35;;;;;;;17.77;100.00;101306.63;5076297;28;19915;-37
2023/09/17 00:33:44;;;;;;;;;;;;;;;17.84;100.00;101308.00;5076994;28;20107;-37
2023/09/17 00:36:09;;;;;;;6.00;5.40;;;;;;;17.71;100.00;101301.09;5076262;28;19908;-37
2023/09/17 00:38:35;;;;;;;;;;;;;;;17.77;100.00;101310.16;5076636;28;20275;-37
2023/09/17 00:41:00;;;;;;;6.93;5.93;;;;;;;17.63;100.00;101301.59;5076151;28;19962;-37
2023/09/17 00:43:26;;;;;;;;;;;;;;;17.69;100.00;101305.16;5077107;28;20034;-37
2023/09/17 00:45:51;;;;;;;7.17;6.20;;;;;;;17.54;100.00;101311.41;5076051;28;20262;-37
2023/09/17 00:48:17;;;;;;;;;;;;;;;17.62;100.00;101318.28;5076127;28;20719;-37
2023/09/17 00:50:43;;;;;;;7.03;5.82;;;;;;;17.45;100.00;101312.97;5075977;28;19909;-37
2023/09/17 00:53:09;;;;;;;7.72;6.53;;;;;;;17.49;100.00;101327.78;5075647;28;20032;-37
2023/09/17 00:55:35;;;;;;;6.43;5.82;;;;;;;17.45;100.00;101324.75;5075289;28;20071;-37
2023/09/17 00:58:01;;;;;;;7.00;5.68;;;;;;;17.47;100.00;101333.50;5076367;28;20041;-37
2023/09/17 01:00:26;;;;;;;;;;;;;;;17.56;100.00;101325.63;5075924;28;20032;-37
2023/09/17 01:02:54;;;;;;;6.87;5.97;;;;;;;17.45;100.00;101329.38;5075723;28;20328;-37
2023/09/17 01:05:20;;;;;;;7.57;5.95;;;;;;;17.51;100.00;101331.06;5075604;28;20305;-38
2023/09/17 01:07:46;;;;;;;7.20;5.57;;;;;;;17.44;100.00;101333.22;5075369;28;20053;-37
2023/09/17 01:10:11;;;;;;;;;;;;;;;17.50;100.00;101332.97;5075757;28;20012;-37
2023/09/17 01:12:38;;;;;;;6.47;5.88;;;;;;;17.23;100.00;101316.69;5075228;28;20347;-37
2023/09/17 01:15:06;;;;;;;6.85;6.15;;;;;;;16.98;100.00;101309.16;5075136;28;20464;-37
2023/09/17 01:17:31;;;;;;;9.45;7.53;;;;;;;16.76;100.00;101310.34;5075063;28;20021;-37
2023/09/17 01:19:57;;;;;;;;;;;;;;;16.85;100.00;101309.59;5075277;28;20024;-36
2023/09/17 01:22:30;;;;;;;7.82;6.82;;;;;;;16.72;100.00;101294.47;5074005;28;20363;-36
2023/09/17 01:25:05;;;;;;;8.48;6.78;;;;;;;16.60;100.00;101304.72;5075842;28;20024;-37
2023/09/17 01:27:33;;;;;;;9.65;6.63;;;;;;;16.64;100.00;101302.28;5075564;28;20082;-37
2023/09/17 01:29:58;;;;;;;6.30;5.70;;;;;;;16.79;100.00;101307.06;5074540;28;20020;-37
2023/09/17 01:32:24;;;;;;;;;;;;;;;16.78;100.00;101297.25;5074081;28;20025;-37
2023/09/17 01:34:52;;;;;;;8.32;7.13;;;;;;;16.78;100.00;101297.25;5074790;28;19904;-37
2023/09/17 01:37:24;;;;;;;9.82;6.90;;;;;;;16.67;100.00;101290.84;5074378;28;20024;-37
2023/09/17 01:39:56;;;;;;;8.18;6.80;;;;;;;16.57;100.00;101277.94;5074981;28;20020;-37
2023/09/17 01:42:23;;;;;;;9.07;6.53;;;;;;;16.52;100.00;101277.91;5075244;28;20448;-37
2023/09/17 01:44:49;;;;;;;9.95;7.45;;;;;;;16.46;100.00;101285.22;5074566;28;20107;-37
2023/09/17 01:47:17;;;;;;;8.52;7.63;;;;;;;16.44;100.00;101289.28;5074846;28;20020;-37
2023/09/17 01:49:44;;;;;;;9.68;7.68;;;;;;;16.42;100.00;101286.00;5075231;28;20029;-35
2023/09/17 01:52:10;;;;;;;8.20;7.22;;;;;;;16.46;100.00;101284.41;5074509;28;20051;-36
2023/09/17 01:54:36;;;;;;;;;;;;;;;16.52;100.00;101282.53;5074798;28;20027;-37
2023/09/17 01:57:01;;;;;;;7.50;6.78;;;;;;;16.37;100.00;101272.31;5074208;28;19912;-37
2023/09/17 01:59:26;;;;;;;;;;;;;;;16.43;100.00;101276.72;5074679;28;20028;-37
2023/09/17 02:01:52;;;;;;;9.07;7.77;;;;;;;16.20;100.00;101261.47;5074316;28;19958;-37
2023/09/17 02:04:17;;;;;;;;;;;;;;;16.34;100.00;101270.09;5074353;28;20392;-37
2023/09/17 02:06:42;;;;;;;8.83;7.90;;;;;;;16.16;100.00;101261.19;5075035;28;19904;-37
2023/09/17 02:09:08;;;;;;;;;;;;;;;16.33;100.00;101269.25;5074550;28;20427;-35
2023/09/17 02:11:35;;;;;;;8.85;7.95;;;;;;;16.27;100.00;101269.47;5074381;28;19936;-37
2023/09/17 02:14:00;;;;;;;9.45;8.43;;;;;;;16.22;100.00;101273.81;5074837;28;20024;-37
2023/09/17 02:16:25;;;;;;;;;;;;;;;16.26;100.00;101273.28;5075332;28;20158;-37
2023/09/17 02:18:54;;;;;;;9.15;8.30;;;;;;;16.04;100.00;101254.25;5073621;28;19908;-37
2023/09/17 02:21:20;;;;;;;11.35;10.00;;;;;;;15.92;100.00;101260.69;5073937;28;20021;-36
2023/09/17 02:23:45;;;;;;;;;;;;;;;16.04;100.00;101265.16;5075203;28;20441;-36
2023/09/17 02:26:10;;;;;;;10.05;9.00;;;;;;;15.94;100.00;101268.59;5073892;28;19904;-36
2023/09/17 02:28:36;;;;;;;;;;;;;;;15.98;100.00;101271.66;5074638;28;20453;-36
2023/09/17 02:31:02;;;;;;;11.32;10.32;;;;;;;15.77;100.00;101262.41;5074160;28;19973;-36
2023/09/17 02:33:27;;;;;;;10.60;9.50;;;;;;;15.71;100.00;101256.06;5074136;28;20021;-37
2023/09/17 02:35:53;;;;;;;;;;;;;;;15.82;100.00;101257.03;5073894;28;20453;-36
2023/09/17 02:38:18;;;;;;;10.65;9.75;;;;;;;15.73;100.00;101255.81;5073938;28;19916;-37
2023/09/17 02:40:43;;;;;;;;;;;;;;;15.70;100.00;101240.78;5074177;28;20107;-36
2023/09/17 02:43:09;;;;;;;11.97;10.07;;;;;;;15.67;100.00;101241.31;5074035;28;19904;-36
2023/09/17 02:45:35;;;;;;;;;;;;;;;15.78;100.00;101250.44;5074045;28;20336;-36
2023/09/17 02:48:01;;;;;;;9.60;8.60;;;;;;;15.69;100.00;101234.50;5073908;28;20002;-36
2023/09/17 02:50:26;;;;;;;;;;;;;;;15.81;100.00;101241.72;5074060;28;20025;-36
2023/09/17 02:52:52;;;;;;;10.05;8.98;;;;;;;15.75;100.00;101234.56;5074405;28;19911;-36
2023/09/17 02:55:17;;;;;;;;;;;;;;;15.80;100.00;101231.91;5074058;28;20028;-36
2023/09/17 02:57:42;;;;;;;9.98;9.07;;;;;;;15.56;100.00;101214.97;5073737;28;19912;-36
2023/09/17 03:00:10;;;;;;;;;;;;;;;15.74;100.00;101219.28;5074497;28;20119;-36
2023/09/17 03:02:36;;;;;;;;;;;;;;;15.75;100.00;101229.13;5074519;28;20300;-36
2023/09/17 03:05:02;;;;;;;10.55;8.63;;;;;;;15.51;100.00;101223.91;5073448;28;19962;-36
2023/09/17 03:07:28;;;;;;;;;;;;;;;15.59;100.00;101223.47;5074525;28;20115;-36
2023/09/17 03:09:53;;;;;;;9.23;8.32;;;;;;;15.52;100.00;101222.00;5073121;28;19944;-36
2023/09/17 03:12:18;;;;;;;;;;;;;;;15.60;100.00;101216.94;5074207;28;20028;-36
2023/09/17 03:14:43;;;;;;;10.30;8.10;;;;;;;15.44;100.00;101215.13;5073121;28;19934;-36
2023/09/17 03:17:09;;;;;;;10.38;9.38;;;;;;;15.30;100.00;101205.69;5073598;28;20271;-36
2023/09/17 03:19:34;;;;;;;;;;;;;;;15.37;100.00;101217.19;5073772;28;20444;-36
2023/09/17 03:22:01;;;;;;;11.15;9.13;;;;;;;15.34;100.00;101218.53;5073631;28;20344;-36
2023/09/17 03:24:26;;;;;;;10.02;9.02;;;;;;;15.35;100.00;101211.19;5074368;28;20021;-36
2023/09/17 03:26:52;;;;;;;10.05;9.02;;;;;;;15.36;100.00;101210.91;5073379;28;20027;-36
2023/09/17 03:29:17;;;;;;;;;;;;;;;15.45;100.00;101217.56;5073719;28;20452;-36
2023/09/17 03:31:45;;;;;;;10.13;8.93;;;;;;;15.29;100.00;101207.56;5073554;28;19908;-36
2023/09/17 03:34:11;;;;;;;10.50;9.60;;;;;;;15.23;100.00;101216.78;5072934;28;20263;-36
2023/09/17 03:36:37;;;;;;;10.00;9.02;;;;;;;15.26;100.00;101218.16;5073579;28;20349;-36
2023/09/17 03:39:05;;;;;;;;;;;;;;;15.33;100.00;101224.25;5073528;28;20016;-36
2023/09/17 03:41:31;;;;;;;10.27;9.40;;;;;;;15.29;100.00;101220.38;5073709;28;19993;-36
2023/09/17 03:43:56;;;;;;;13.35;10.48;;;;;;;15.14;100.00;101221.81;5073760;28;20085;-36
2023/09/17 03:46:21;;;;;;;;;;;;;;;15.25;100.00;101216.50;5077606;28;20460;-36
2023/09/17 03:48:46;;;;;;;11.37;10.23;;;;;;;15.13;100.00;101222.09;5076920;28;20245;-36
2023/09/17 03:51:12;;;;;;;;;;;;;;;15.28;100.00;101218.75;5077793;28;20251;-36
2023/09/17 03:53:38;;;;;;;11.45;9.90;;;;;;;15.22;100.00;101215.09;5077287;28;19912;-36
2023/09/17 03:56:04;;;;;;;;;;;;;;;15.31;100.00;101212.75;5077414;28;20065;-36
2023/09/17 03:58:29;;;;;;;12.15;10.88;;;;;;;15.29;100.00;101212.22;5076678;28;19965;-36
2023/09/17 04:00:54;;;;;;;12.15;10.85;;;;;;;15.25;100.00;101211.88;5076275;28;20020;-36
2023/09/17 04:03:20;;;;;;;;;;;;;;;15.41;100.00;101212.88;5077601;28;20043;-36
2023/09/17 04:05:48;;;;;;;10.93;9.98;;;;;;;15.36;100.00;101212.81;5076788;28;19908;-36
2023/09/17 04:08:13;;;;;;;11.55;10.45;;;;;;;15.45;100.00;101216.75;5076744;28;20472;-36
2023/09/17 04:10:38;;;;;;;12.35;11.15;;;;;;;15.42;100.00;101215.38;5076447;28;20021;-36
2023/09/17 04:13:04;;;;;;;;;;;;;;;15.57;100.00;101222.09;5077370;28;20021;-36
2023/09/17 04:15:30;;;;;;;11.40;10.40;;;;;;;15.30;100.00;101208.41;5076577;28;19909;-36
2023/09/17 04:17:55;;;;;;;;;;;;;;;15.43;100.00;101210.75;5076970;28;20365;-36
2023/09/17 04:20:20;;;;;;;12.00;10.87;;;;;;;15.27;100.00;101203.44;5077037;28;19908;-36
2023/09/17 04:22:48;;;;;;;11.25;10.25;;;;;;;15.35;100.00;101212.00;5076810;28;20262;-36
2023/09/17 04:25:15;;;;;;;11.63;10.43;;;;;;;15.38;100.00;101208.78;5076099;28;20174;-36
2023/09/17 04:27:44;;;;;;;12.55;11.25;;;;;;;15.43;100.00;101205.31;5076417;28;20031;-36
2023/09/17 04:30:13;;;;;;;12.40;11.10;;;;;;;15.38;100.00;101197.06;5076578;28;20058;-36
2023/09/17 04:32:40;;;;;;;11.93;10.82;;;;;;;15.37;100.00;101196.25;5076818;28;20038;-36
2023/09/17 04:35:11;;;;;;;11.55;10.48;;;;;;;15.45;100.00;101192.22;5075995;28;20419;-36
2023/09/17 04:37:39;;;;;;;11.90;10.80;;;;;;;15.56;100.00;101206.78;5076711;28;20024;-36
2023/09/17 04:40:08;;;;;;;11.00;10.02;;;;;;;15.64;100.00;101211.84;5075573;28;20048;-36
2023/09/17 04:42:45;;;;;;;12.23;11.07;;;;;;;15.65;100.00;101208.84;5075592;28;20066;-36
2023/09/17 04:45:12;;;;;;;12.25;11.10;;;;;;;15.55;100.00;101189.63;5076646;28;20028;-36
2023/09/17 04:47:39;;;;;;;11.95;10.82;;;;;;;15.64;100.00;101201.75;5076055;28;20024;-36
2023/09/17 04:50:08;;;;;;;13.48;12.18;;;;;;;15.61;100.00;101204.13;5075653;28;20087;-36
2023/09/17 04:52:36;;;;;;;12.45;11.32;;;;;;;15.63;100.00;101196.53;5075726;28;20450;-36
2023/09/17 04:55:03;;;;;;;12.52;11.32;;;;;;;15.67;100.00;101194.97;5075746;28;20116;-36
2023/09/17 04:57:28;;;;;;;12.13;10.93;;;;;;;15.72;100.00;101197.75;5075512;28;20044;-36
2023/09/17 04:59:54;;;;;;;;;;;;;;;15.84;100.00;101201.13;5074682;28;20028;-36
2023/09/17 05:02:21;;;;;;;13.98;12.57;;;;;;;15.72;100.00;101202.38;5075192;28;19914;-36
2023/09/17 05:04:47;;;;;;;12.00;10.90;;;;;;;15.75;100.00;101196.41;5075393;28;20115;-36
2023/09/17 05:07:12;;;;;;;;;;;;;;;15.85;100.00;101196.50;5076104;28;20363;-36
2023/09/17 05:09:37;;;;;;;10.77;9.77;;;;;;;15.86;100.00;101200.88;5076181;28;19912;-36
2023/09/17 05:12:03;;;;;;;;;;;;;;;15.91;100.00;101201.75;5076264;28;20246;-36
2023/09/17 05:14:28;;;;;;;12.30;11.07;;;;;;;15.80;100.00;101188.28;5074858;28;20272;-36
2023/09/17 05:16:54;;;;;;;;;;;;;;;15.96;100.00;101201.00;5075547;28;20032;-36
2023/09/17 05:19:19;;;;;;;13.53;12.20;;;;;;;15.92;100.00;101206.13;5075050;28;19915;-36
2023/09/17 05:21:44;;;;;;;;;;;;;;;16.00;100.00;101206.72;5075283;28;20702;-36
2023/09/17 05:24:10;;;;;;;13.20;11.95;;;;;;;15.95;100.00;101204.78;5075466;28;20301;-36
2023/09/17 05:26:35;;;;;;;;;;;;;;;16.02;100.00;101202.69;5076012;28;20027;-36
2023/09/17 05:29:00;;;;;;;13.63;12.43;;;;;;;15.96;100.00;101203.72;5075539;28;19908;-36
2023/09/17 05:31:25;;;;;;;;;;;;;;;16.05;100.00;101204.88;5075922;28;20028;-36
2023/09/17 05:33:51;;;;;;;13.68;12.15;;;;;;;16.01;100.00;101211.97;5074514;28;19908;-36
2023/09/17 05:36:16;;;;;;;;;;;;;;;16.12;100.00;101208.22;5075917;28;20115;-36
2023/09/17 05:38:42;;;;;;;15.07;13.67;;;;;;;15.94;100.00;101214.06;5074981;28;19957;-41
2023/09/17 05:41:07;;;;;;;;;;;;;;;16.10;100.00;101213.09;5075332;28;20349;-36
2023/09/17 05:43:32;;;;;;;14.00;12.80;;;;;;;16.02;100.00;101219.06;5075194;28;19962;-36
2023/09/17 05:45:58;;;;;;;;;;;;;;;16.15;100.00;101217.78;5075036;28;20023;-36
2023/09/17 05:48:23;;;;;;;16.58;15.00;;;;;;;15.89;100.00;101224.91;5074828;28;19943;-36
2023/09/17 05:50:55;;;;;;;;;;;;;;;15.84;100.00;101216.69;5074914;28;20020;-36
2023/09/17 05:53:20;;;;;;;16.42;14.73;;;;;;;15.76;100.00;101214.41;5074685;28;20257;-36
2023/09/17 05:55:45;;;;;;;;;;;;;;;15.83;100.00;101220.50;5074184;28;20099;-36
2023/09/17 05:58:11;;;;;;;14.97;13.67;;;;;;;15.83;100.00;101215.03;5074452;28;20402;-36
2023/09/17 06:00:36;;;;;;;;;;;;;;;15.91;100.00;101217.31;5074643;28;20735;-36
2023/09/17 06:03:01;;;;;;;15.90;14.40;;;;;;;15.89;100.00;101219.44;5074537;28;20252;-36
2023/09/17 06:05:27;;;;;;;;;;;;;;;15.95;100.00;101221.16;5074331;28;20281;-36
2023/09/17 06:07:52;;;;;;;14.20;12.80;;;;;;;15.98;100.00;101217.09;5073431;28;19962;-36
2023/09/17 06:10:18;;;;;;;;;;;;;;;16.04;100.00;101214.16;5075093;28;20278;-36
2023/09/17 06:12:43;;;;;;;14.93;13.57;;;;;;;15.93;100.00;101207.78;5073825;28;19908;-36
2023/09/17 06:15:08;;;;;;;;;;;;;;;16.07;100.00;101207.38;5074455;28;20272;-36
2023/09/17 06:17:34;;;;;;;13.57;12.45;;;;;;;16.09;100.00;101203.28;5074597;28;19908;-36
2023/09/17 06:19:59;;;;;;;;;;;;;;;16.16;100.00;101209.38;5075021;28;20074;-36
2023/09/17 06:22:25;;;;;;;14.00;12.80;;;;;;;16.18;100.00;101212.66;5074503;28;19994;-36
2023/09/17 06:24:51;;;;;;;;;;;;;;;16.26;100.00;101218.72;5074302;28;20445;-36
2023/09/17 06:27:16;;;;;;;15.40;14.02;;;;;;;16.19;100.00;101208.81;5073594;28;19904;-36
2023/09/17 06:29:41;;;;;;;;;;;;;;;16.25;100.00;101207.00;5074277;28;20036;-36
2023/09/17 06:32:07;;;;;;;14.27;13.05;;;;;;;16.26;100.00;101210.53;5074120;28;19985;-37
2023/09/17 06:34:32;;;;;;;;;;;;;;;16.29;100.00;101210.81;5074215;28;20024;-36
2023/09/17 06:36:58;;;;;;;11.88;10.88;;;;;;;16.30;100.00;101201.56;5074506;28;19915;-37
2023/09/17 06:39:23;;;;;;;;;;;;;;;16.35;100.00;101204.34;5074151;28;20059;-36
2023/09/17 06:41:48;;;;;;;13.63;12.43;;;;;;;16.31;100.00;101205.94;5073781;28;19904;-36
2023/09/17 06:44:14;;;;;;;;;;;;;;;16.40;100.00;101209.84;5074634;28;20030;-36
2023/09/17 06:46:39;;;;;;;14.57;13.37;;;;;;;16.39;100.00;101201.88;5074419;28;19904;-36
2023/09/17 06:49:05;;;;;;;;;;;;;;;16.46;100.00;101213.44;5074824;28;20360;-36
2023/09/17 06:51:30;;;;;;;13.07;11.97;;;;;;;16.50;100.00;101211.00;5073579;28;19911;-37
2023/09/17 06:53:55;;;;;;;;;;;;;;;16.53;100.00;101213.19;5073732;28;20263;-37
2023/09/17 06:56:23;;;;;;;15.90;14.55;;;;;;;16.51;100.00;101210.75;5073815;28;19936;-37
2023/09/17 06:58:49;;;;;;;18.08;16.58;;;;;;;16.40;100.00;101198.94;5073720;28;20049;-36
2023/09/17 07:01:14;;;;;;;;;;;;;;;16.54;100.00;101210.19;5074484;28;20031;-36
2023/09/17 07:03:39;;;;;;;15.77;14.43;;;;;;;16.52;100.00;101206.91;5073453;28;19930;-36
2023/09/17 07:06:05;;;;;;;;;;;;;;;16.59;100.00;101209.41;5073912;28;20328;-37
2023/09/17 07:08:30;;;;;;;13.60;12.48;;;;;;;16.59;100.00;101202.06;5073724;28;19916;-37
2023/09/17 07:10:56;;;;;;;;;;;;;;;16.63;100.00;101200.44;5074421;28;20029;-37
2023/09/17 07:13:21;;;;;;;15.57;14.27;;;;;;;16.62;100.00;101200.72;5073662;28;19908;-37
2023/09/17 07:15:46;;;;;;;;;;;;;;;16.67;100.00;101200.75;5073841;28;20267;-36
2023/09/17 07:18:12;;;;;;;15.80;14.45;;;;;;;16.63;100.00;101196.88;5073610;28;19973;-36
2023/09/17 07:20:38;;;;;;;;;;;;;;;16.70;100.00;101209.25;5077757;28;20444;-36
2023/09/17 07:23:03;;;;;;;15.63;14.23;;;;;;;16.64;100.00;101187.59;5077367;28;20394;-36
2023/09/17 07:25:28;;;;;;;;;;;;;;;16.77;100.00;101208.22;5077694;28;20024;-37
2023/09/17 07:27:54;;;;;;;16.25;14.75;;;;;;;16.77;100.00;101205.47;5077022;28;19915;-36
2023/09/17 07:30:19;;;;;;;;;;;;;;;16.80;100.00;101203.06;5077619;28;20024;-36
2023/09/17 07:32:44;;;;;;;16.80;15.10;;;;;;;16.77;100.00;101211.75;5077148;28;20340;-36
2023/09/17 07:35:09;;;;;;;;;;;;;;;16.84;100.00;101208.81;5077269;28;20034;-36
2023/09/17 07:37:35;;;;;;;11.77;10.67;;;;;;;16.83;100.00;101196.22;5077311;28;20341;-37
2023/09/17 07:40:04;;;;;;;;;;;;;;;16.92;100.00;101205.56;5077424;28;20657;-36
2023/09/17 07:42:29;;;;;;;18.50;16.73;;;;;;;16.86;100.00;101190.25;5076939;28;19965;-36
2023/09/17 07:44:54;;;;;;;;;;;;;;;16.96;100.00;101190.28;5077047;28;20457;-36
2023/09/17 07:47:20;;;;;;;17.55;15.88;;;;;;;16.91;100.00;101179.34;5077675;28;20324;-36
2023/09/17 07:49:45;;;;;;;;;;;;;;;17.04;100.00;101198.00;5077487;28;20016;-37
2023/09/17 07:52:12;;;;;;;19.23;17.43;;;;;;;16.98;100.00;101190.84;5077063;28;19912;-36
2023/09/17 07:54:41;;;;;;;19.73;17.85;;;;;;;17.07;100.00;101193.91;5076701;28;20263;-36
2023/09/17 07:57:09;;;;;;;20.27;18.38;;;;;;;17.04;100.00;101191.72;5076411;28;20021;-37
2023/09/17 07:59:34;;;;;;;21.88;19.88;;;;;;;17.06;100.00;101197.72;5076322;28;20131;-37
2023/09/17 08:01:59;;;;;;;;;;;;;;;17.11;100.00;101201.31;5076714;28;20105;-37
2023/09/17 08:04:26;;;;;;;21.08;19.08;;;;;;;17.10;100.00;101204.31;5076271;28;19905;-36
2023/09/17 08:06:51;;;;;;;22.50;20.38;;;;;;;17.10;100.00;101205.13;5077356;28;20033;-37
2023/09/17 08:09:17;;;;;;;;;;;;;;;17.18;100.00;101209.28;5076901;28;20506;-36
2023/09/17 08:11:42;;;;;;;22.55;20.30;;;;;;;17.15;100.00;101199.69;5076667;28;19904;-37
2023/09/17 08:14:08;;;;;;;;;;;;;;;17.23;100.00;101209.28;5077638;28;20085;-37
2023/09/17 08:16:35;;;;;;;21.75;19.65;;;;;;;17.15;100.00;101205.16;5076583;28;19905;-37
2023/09/17 08:19:00;;;;;;;20.17;18.27;;;;;;;17.25;100.00;101213.38;5076158;28;20107;-37
2023/09/17 08:21:27;;;;;;;;;;;;;;;17.33;100.00;101209.34;5077580;28;20052;-36
2023/09/17 08:23:52;;;;;;;25.23;22.63;;;;;;;17.23;100.00;101212.03;5076227;28;19911;-37
2023/09/17 08:26:18;;;;;;;;;;;;;;;17.27;100.00;101209.56;5076883;28;20028;-37
2023/09/17 08:28:43;;;;;;;20.17;18.27;;;;;;;17.20;100.00;101194.25;5076421;28;19904;-36
2023/09/17 08:31:09;;;;;;;;;;;;;;;17.34;100.00;101212.88;5075967;28;20025;-36
2023/09/17 08:33:35;;;;;;;23.55;21.25;;;;;;;17.28;100.00;101203.03;5076312;28;19904;-37
2023/09/17 08:36:01;;;;;;;25.58;23.08;;;;;;;17.32;100.00;101207.66;5075987;28;20460;-37
2023/09/17 08:38:26;;;;;;;;;;;;;;;17.38;100.00;101211.28;5076374;28;20020;-37
2023/09/17 08:40:52;;;;;;;26.63;23.85;;;;;;;17.34;100.00;101215.63;5075849;28;19954;-36
2023/09/17 08:43:17;;;;;;;;;;;;;;;17.39;100.00;101219.19;5076601;28;20041;-37
2023/09/17 08:45:43;;;;;;;25.58;23.00;;;;;;;17.39;100.00;101219.19;5076094;28;19954;-37
2023/09/17 08:48:08;;;;;;;;;;;;;;;17.45;100.00;101225.50;5076198;28;20456;-36
2023/09/17 08:50:35;;;;;;;24.88;22.42;;;;;;;17.43;100.00;101212.09;5075738;28;19908;-37
2023/09/17 08:53:07;;;;;;;29.13;26.27;;;;;;;17.43;100.00;101205.81;5075604;28;20024;-37
2023/09/17 08:55:32;;;;;;;25.98;23.38;;;;;;;17.50;100.00;101200.91;5075510;28;20025;-37
2023/09/17 08:58:17;;;;;;;;;;;;;;;17.62;100.00;101228.84;5075619;28;20372;-36
2023/09/17 09:00:50;;;;;;;29.05;26.15;;;;;;;17.62;100.00;101223.38;5075520;28;19966;-37
2023/09/17 09:03:17;;;;;;;29.67;26.52;;;;;;;17.63;100.00;101225.03;5076012;28;20020;-37
2023/09/17 09:05:46;;;;;;;29.98;26.90;;;;;;;17.57;100.00;101219.78;5075642;28;20013;-36
2023/09/17 09:08:13;;;;;;;29.20;26.10;;;;;;;17.63;100.00;101232.41;5075102;28;20066;-37
2023/09/17 09:10:38;;;;;;;29.92;26.98;;;;;;;17.62;100.00;101226.13;5075342;28;20040;-37
2023/09/17 09:13:04;;;;;;;;;;;;;;;17.76;100.00;101234.66;5076571;28;20020;-37
2023/09/17 09:15:30;;;;;;;28.60;24.75;;;;;;;17.75;100.00;101242.03;5075232;28;19927;-37
2023/09/17 09:17:55;;;;;;;26.65;24.05;;;;;;;17.73;100.00;101238.75;5075241;28;20027;-37
2023/09/17 09:20:21;;;;;;;;;;;;;;;17.83;100.00;101248.91;5076107;28;20025;-36
2023/09/17 09:22:47;;;;;;;28.67;25.55;;;;;;;17.80;100.00;101248.63;5075082;28;19904;-36
2023/09/17 09:25:13;;;;;;;;;;;;;;;17.88;100.00;101245.38;5075741;28;20028;-36
2023/09/17 09:27:38;;;;;;;30.65;27.52;;;;;;;17.84;100.00;101247.00;5074986;28;19996;-37
2023/09/17 09:30:07;;;;;;;;;;;;;;;17.92;100.00;101235.53;5075337;28;20064;-37
2023/09/17 09:32:32;;;;;;;25.73;23.10;;;;;;;17.93;100.00;101245.38;5075682;28;19904;-37
2023/09/17 09:34:57;;;;;;;;;;;;;;;18.01;100.00;101233.91;5075218;28;20029;-37
2023/09/17 09:37:23;;;;;;;32.97;29.65;;;;;;;18.04;100.00;101233.34;5074373;28;19908;-36
2023/09/17 09:39:49;;;;;;;25.50;22.92;;;;;;;18.06;100.00;101225.72;5075275;28;20028;-37
2023/09/17 09:42:14;;;;;;;;;;;;;;;18.17;100.00;101224.63;5074231;28;20342;-37
2023/09/17 09:44:40;;;;;;;31.23;27.58;;;;;;;18.12;100.00;101218.31;5074623;28;19948;-37
2023/09/17 09:47:06;;;;;;;;;;;;;;;18.23;100.00;101219.97;5075833;28;20059;-36
2023/09/17 09:49:42;;;;;;;37.35;29.88;;;;;;;18.19;100.00;101225.16;5075315;28;20232;-36
2023/09/17 09:52:07;;;;;;;29.70;26.33;;;;;;;18.22;100.00;101223.81;5074814;28;20023;-37
2023/09/17 09:54:32;;;;;;;;;;;;;;;18.28;100.00;101220.78;5074516;28;20619;-36
2023/09/17 09:56:58;;;;;;;28.95;25.77;;;;;;;18.28;100.00;101218.03;5074439;28;19912;-36
2023/09/17 09:59:25;;;;;;;32.85;29.35;;;;;;;18.32;100.00;101228.47;5073967;28;20048;-36
2023/09/17 10:01:50;;;;;;;32.67;29.27;;;;;;;18.26;100.00;101214.78;5074274;28;20056;-36
2023/09/17 10:04:17;;;;;;;;;;;;;;;18.42;100.00;101223.78;5074363;28;20082;-37
2023/09/17 10:06:45;;;;;;;30.80;27.48;;;;;;;18.40;100.00;101215.06;5073938;28;19904;-37
2023/09/17 10:09:10;;;;;;;33.00;29.15;;;;;;;18.46;100.00;101208.47;5074709;28;20048;-37
2023/09/17 10:11:36;;;;;;;;;;;;;;;18.54;100.00;101218.03;5074895;28;20103;-37
2023/09/17 10:14:06;;;;;;;34.00;28.35;;;;;;;18.47;100.00;101218.31;5073741;28;20296;-37
2023/09/17 10:16:33;;;;;;;33.22;29.83;;;;;;;18.48;100.00;101216.41;5074010;28;20021;-37
2023/09/17 10:19:00;;;;;;;31.67;27.83;;;;;;;18.55;100.00;101213.41;5074222;28;20017;-37
2023/09/17 10:21:27;;;;;;;31.30;28.05;;;;;;;18.61;100.00;101215.03;5074149;28;20066;-37
2023/09/17 10:23:54;;;;;;;27.80;24.85;;;;;;;18.62;100.00;101198.31;5074746;28;20025;-36
2023/09/17 10:26:23;;;;;;;29.83;26.83;;;;;;;18.66;100.00;101204.88;5074518;28;20074;-36
2023/09/17 10:28:51;;;;;;;30.40;27.20;;;;;;;18.65;100.00;101200.50;5074208;28;20360;-37
2023/09/17 10:31:18;;;;;;;30.60;27.38;;;;;;;18.64;100.00;101203.50;5073873;28;20062;-36
2023/09/17 10:33:46;;;;;;;29.92;26.40;;;;;;;18.67;100.00;101200.22;5074677;28;20103;-36
2023/09/17 10:36:13;;;;;;;28.90;25.83;;;;;;;18.69;100.00;101201.63;5073516;28;20107;-36
2023/09/17 10:38:39;;;;;;;32.08;28.25;;;;;;;18.70;100.00;101196.97;5073688;28;20020;-37
2023/09/17 10:41:05;;;;;;;;;;;;;;;18.85;100.00;101202.41;5074445;28;20020;-36
2023/09/17 10:43:34;;;;;;;30.88;26.00;;;;;;;18.86;100.00;101214.19;5073669;28;19905;-37
2023/09/17 10:46:01;;;;;;;31.83;24.88;;;;;;;18.84;100.00;101197.19;5073868;28;20032;-36
2023/09/17 10:48:28;;;;;;;34.60;26.83;;;;;;;18.87;100.00;101197.47;5073696;28;20032;-36
2023/09/17 10:50:54;;;;;;;32.17;26.20;;;;;;;18.91;100.00;101203.22;5073313;28;20108;-37
2023/09/17 10:53:19;;;;;;;30.85;25.67;;;;;;;18.92;100.00;101204.84;5073428;28;20027;-36
2023/09/17 10:55:52;;;;;;;;;;;;;;;19.04;100.00;101202.66;5074301;28;20111;-36
2023/09/17 10:58:27;;;;;;;26.63;23.15;;;;;;;19.06;100.00;101202.34;5073615;28;19920;-36
2023/09/17 11:00:55;;;;;;;33.10;25.20;;;;;;;19.05;100.00;101201.53;5074388;28;20032;-37
2023/09/17 11:03:23;;;;;;;29.17;24.00;;;;;;;19.07;100.00;101202.06;5073256;28;20468;-37
2023/09/17 11:05:51;;;;;;;27.00;23.27;;;;;;;19.14;100.00;101201.78;5073414;28;20020;-36
2023/09/17 11:08:17;;;;;;;28.95;23.80;;;;;;;19.23;100.00;101197.38;5073460;28;20032;-36
2023/09/17 11:10:42;;;;;;;;;;;;;;;19.37;100.00;101200.31;5073865;28;20028;-36
2023/09/17 11:13:12;;;;;;;26.30;22.73;;;;;;;19.36;100.00;101201.41;5074254;28;20020;-36
2023/09/17 11:15:39;;;;;;;29.30;23.58;;;;;;;19.38;100.00;101199.22;5073386;28;20020;-37
2023/09/17 11:18:07;;;;;;;25.52;22.83;;;;;;;19.45;100.00;101197.00;5073356;28;20048;-37
2023/09/17 11:20:33;;;;;;;25.20;22.25;;;;;;;19.48;100.00;101194.50;5073010;28;20048;-36
2023/09/17 11:22:58;;;;;;;28.65;24.38;;;;;;;19.61;100.00;101193.09;5073089;28;20063;-37
2023/09/17 11:25:37;;;;;;;25.10;22.40;;;;;;;19.73;100.00;101201.00;5073588;28;20048;-37
2023/09/17 11:28:10;;;;;;;25.80;22.33;;;;;;;19.76;100.00;101201.25;5073868;28;20028;-37